createdAt,value
2023-06-04T00:00:00.014Z,22.87
2023-06-04T00:01:01.894Z,23.38
2023-06-04T00:02:04.020Z,23.03
2023-06-04T00:03:06.206Z,23.62
2023-06-04T00:04:08.259Z,23.34
2023-06-04T00:05:10.186Z,22.95
2023-06-04T00:06:12.588Z,22.70
2023-06-04T00:07:14.449Z,22.90
2023-06-04T00:08:16.339Z,23.49
2023-06-04T00:09:18.379Z,22.93
2023-06-04T00:10:20.409Z,22.92
2023-06-04T00:11:22.524Z,23.61
2023-06-04T00:12:24.403Z,23.21
2023-06-04T00:13:26.294Z,22.96
2023-06-04T00:14:28.411Z,23.51
2023-06-04T00:15:30.377Z,22.63
2023-06-04T00:16:32.400Z,23.39
2023-06-04T00:17:34.287Z,22.93
2023-06-04T00:18:36.202Z,23.55
2023-06-04T00:19:43.626Z,23.34
2023-06-04T00:20:45.614Z,23.27
2023-06-04T00:21:47.606Z,23.62
2023-06-04T00:22:49.532Z,23.53
2023-06-04T00:23:51.491Z,22.92
2023-06-04T00:24:53.433Z,23.77
2023-06-04T00:25:55.383Z,23.63
2023-06-04T00:26:57.355Z,23.55
2023-06-04T00:27:59.169Z,23.74
2023-06-04T00:29:01.949Z,23.15
2023-06-04T00:30:05.277Z,23.67
2023-06-04T00:31:07.622Z,23.21
2023-06-04T00:32:10.155Z,23.68
2023-06-04T00:33:12.201Z,23.16
2023-06-04T00:34:14.221Z,23.09
2023-06-04T00:35:16.141Z,23.09
2023-06-04T00:36:18.039Z,23.72
2023-06-04T00:37:19.905Z,23.74
2023-06-04T00:38:21.961Z,23.01
2023-06-04T00:39:23.821Z,23.06
2023-06-04T00:40:26.180Z,23.67
2023-06-04T00:41:28.145Z,23.37
2023-06-04T00:42:30.046Z,23.41
2023-06-04T00:43:32.862Z,23.57
2023-06-04T00:44:34.966Z,23.55
2023-06-04T00:45:37.528Z,23.31
2023-06-04T00:46:39.557Z,23.33
2023-06-04T00:47:41.690Z,23.07
2023-06-04T00:48:44.575Z,23.98
2023-06-04T00:49:46.743Z,23.73
2023-06-04T00:50:49.789Z,23.67
2023-06-04T00:51:52.009Z,23.85
2023-06-04T00:52:55.318Z,23.59
2023-06-04T00:53:57.459Z,23.93
2023-06-04T00:54:59.367Z,23.16
2023-06-04T00:56:01.312Z,23.99
2023-06-04T00:57:03.317Z,23.50
2023-06-04T00:58:05.430Z,23.45
2023-06-04T00:59:08.708Z,23.95
2023-06-04T01:00:11.215Z,23.49
2023-06-04T01:01:46.467Z,23.23
2023-06-04T01:02:52.748Z,23.59
2023-06-04T01:03:57.386Z,23.01
2023-06-04T01:05:21.101Z,23.42
2023-06-04T01:06:34.241Z,23.32
2023-06-04T01:07:37.195Z,23.88
2023-06-04T01:08:43.906Z,23.21
2023-06-04T01:09:46.599Z,23.85
2023-06-04T01:10:56.453Z,23.56
2023-06-04T01:12:03.148Z,23.11
2023-06-04T01:13:04.992Z,23.20
2023-06-04T01:14:09.819Z,23.98
2023-06-04T01:15:12.574Z,24.07
2023-06-04T01:16:16.752Z,23.98
2023-06-04T01:17:21.763Z,23.24
2023-06-04T01:18:31.750Z,23.84
2023-06-04T01:20:01.925Z,23.96
2023-06-04T01:21:11.262Z,23.80
2023-06-04T01:22:32.651Z,23.77
2023-06-04T01:23:46.600Z,23.22
2023-06-04T01:24:56.859Z,23.43
2023-06-04T01:25:59.317Z,23.39
2023-06-04T01:27:01.918Z,23.24
2023-06-04T01:28:05.852Z,23.78
2023-06-04T01:29:08.418Z,24.00
2023-06-04T01:30:11.771Z,23.95
2023-06-04T01:31:15.245Z,23.82
2023-06-04T01:32:18.482Z,23.36
2023-06-04T01:33:21.837Z,23.91
2023-06-04T01:34:24.078Z,23.47
2023-06-04T01:35:29.138Z,23.64
2023-06-04T01:36:31.221Z,24.10
2023-06-04T01:37:33.078Z,23.62
2023-06-04T01:38:35.841Z,23.43
2023-06-04T01:39:37.724Z,24.21
2023-06-04T01:40:39.714Z,24.30
2023-06-04T01:41:41.531Z,23.93
2023-06-04T01:42:43.875Z,24.01
2023-06-04T01:43:45.761Z,23.46
2023-06-04T01:44:47.589Z,23.70
2023-06-04T01:45:49.660Z,23.55
2023-06-04T01:46:51.602Z,23.62
2023-06-04T01:47:54.407Z,24.04
2023-06-04T01:48:56.240Z,23.72
2023-06-04T01:49:58.063Z,24.24
2023-06-04T01:51:00.134Z,24.22
2023-06-04T01:52:01.942Z,24.24
2023-06-04T01:53:04.730Z,23.52
2023-06-04T01:54:06.691Z,23.66
2023-06-04T01:55:13.245Z,23.94
2023-06-04T01:56:15.539Z,23.83
2023-06-04T01:57:17.811Z,24.35
2023-06-04T01:58:28.370Z,23.95
2023-06-04T01:59:30.297Z,24.07
2023-06-04T02:00:32.250Z,23.70
2023-06-04T02:01:35.424Z,23.55
2023-06-04T02:02:38.224Z,24.27
2023-06-04T02:03:41.992Z,24.26
2023-06-04T02:04:43.996Z,23.58
2023-06-04T02:05:47.730Z,24.05
2023-06-04T02:06:50.035Z,24.30
2023-06-04T02:07:52.637Z,23.52
2023-06-04T02:08:55.325Z,24.21
2023-06-04T02:09:57.364Z,24.33
2023-06-04T02:10:59.245Z,23.65
2023-06-04T02:12:01.353Z,24.13
2023-06-04T02:13:04.481Z,23.63
2023-06-04T02:14:06.363Z,23.87
2023-06-04T02:15:11.814Z,23.84
2023-06-04T02:16:13.695Z,23.65
2023-06-04T02:17:17.407Z,24.33
2023-06-04T02:18:22.212Z,23.86
2023-06-04T02:19:28.222Z,24.06
2023-06-04T02:20:31.118Z,23.93
2023-06-04T02:21:32.989Z,23.95
2023-06-04T02:22:34.800Z,23.81
2023-06-04T02:23:36.663Z,24.35
2023-06-04T02:24:40.238Z,23.81
2023-06-04T02:25:42.335Z,23.75
2023-06-04T02:26:44.328Z,24.34
2023-06-04T02:27:46.334Z,24.24
2023-06-04T02:28:48.160Z,24.23
2023-06-04T02:29:49.990Z,24.43
2023-06-04T02:30:51.934Z,24.02
2023-06-04T02:31:53.880Z,23.67
2023-06-04T02:32:57.518Z,24.26
2023-06-04T02:33:59.381Z,23.84
2023-06-04T02:35:01.230Z,24.29
2023-06-04T02:36:03.370Z,24.33
2023-06-04T02:37:05.774Z,23.65
2023-06-04T02:38:08.134Z,23.98
2023-06-04T02:39:10.070Z,24.24
2023-06-04T02:40:12.734Z,24.21
2023-06-04T02:41:14.783Z,23.98
2023-06-04T02:42:16.626Z,24.25
2023-06-04T02:43:18.459Z,24.00
2023-06-04T02:44:20.564Z,24.19
2023-06-04T02:45:23.376Z,24.51
2023-06-04T02:46:25.430Z,24.54
2023-06-04T02:47:28.573Z,24.45
2023-06-04T02:48:30.585Z,23.76
2023-06-04T02:49:32.448Z,24.28
2023-06-04T02:50:34.312Z,24.53
2023-06-04T02:51:36.145Z,24.50
2023-06-04T02:52:38.403Z,24.28
2023-06-04T02:53:40.593Z,23.84
2023-06-04T02:54:42.477Z,23.95
2023-06-04T02:55:44.420Z,24.01
2023-06-04T02:56:46.807Z,23.86
2023-06-04T02:57:48.710Z,24.03
2023-06-04T02:58:54.751Z,24.27
2023-06-04T02:59:56.718Z,24.32
2023-06-04T03:00:58.890Z,24.52
2023-06-04T03:02:00.987Z,24.49
2023-06-04T03:03:03.388Z,23.94
2023-06-04T03:04:06.217Z,23.86
2023-06-04T03:05:11.757Z,24.27
2023-06-04T03:06:15.407Z,23.94
2023-06-04T03:07:21.727Z,24.06
2023-06-04T03:08:23.601Z,24.15
2023-06-04T03:09:25.866Z,24.19
2023-06-04T03:10:27.809Z,23.89
2023-06-04T03:11:29.660Z,24.00
2023-06-04T03:12:31.716Z,24.23
2023-06-04T03:13:33.804Z,24.47
2023-06-04T03:14:35.647Z,23.92
2023-06-04T03:15:40.256Z,24.27
2023-06-04T03:16:42.346Z,23.85
2023-06-04T03:17:45.478Z,24.62
2023-06-04T03:18:47.867Z,24.36
2023-06-04T03:19:50.144Z,24.47
2023-06-04T03:20:52.165Z,24.57
2023-06-04T03:21:54.820Z,23.96
2023-06-04T03:22:56.781Z,24.76
2023-06-04T03:23:58.771Z,24.78
2023-06-04T03:25:00.807Z,23.97
2023-06-04T03:26:03.647Z,23.95
2023-06-04T03:27:06.595Z,24.64
2023-06-04T03:28:08.619Z,24.13
2023-06-04T03:29:10.606Z,24.56
2023-06-04T03:30:12.938Z,24.65
2023-06-04T03:31:36.020Z,24.04
2023-06-04T03:32:38.087Z,24.10
2023-06-04T03:33:39.948Z,24.69
2023-06-04T03:34:43.457Z,24.53
2023-06-04T03:35:46.554Z,23.91
2023-06-04T03:36:49.840Z,24.73
2023-06-04T03:37:51.699Z,24.28
2023-06-04T03:38:53.558Z,24.13
2023-06-04T03:39:55.435Z,24.02
2023-06-04T03:40:57.546Z,24.64
2023-06-04T03:41:59.624Z,24.76
2023-06-04T03:43:01.530Z,24.50
2023-06-04T03:44:06.480Z,24.17
2023-06-04T03:45:08.830Z,24.26
2023-06-04T03:46:11.975Z,24.11
2023-06-04T03:47:14.030Z,23.99
2023-06-04T03:48:16.640Z,24.40
2023-06-04T03:49:20.629Z,24.22
2023-06-04T03:50:23.945Z,24.59
2023-06-04T03:51:27.343Z,24.57
2023-06-04T03:52:29.926Z,24.25
2023-06-04T03:53:34.428Z,24.71
2023-06-04T03:54:37.118Z,24.59
2023-06-04T03:55:39.036Z,24.28
2023-06-04T03:56:43.123Z,24.60
2023-06-04T03:57:46.880Z,24.55
2023-06-04T03:58:49.989Z,23.97
2023-06-04T03:59:52.265Z,24.85
2023-06-04T04:00:54.744Z,24.26
2023-06-04T04:01:56.911Z,24.44
2023-06-04T04:02:59.338Z,24.00
2023-06-04T04:04:04.086Z,24.18
2023-06-04T04:05:06.547Z,24.34
2023-06-04T04:06:08.416Z,24.39
2023-06-04T04:07:10.492Z,24.19
2023-06-04T04:08:13.178Z,24.73
2023-06-04T04:09:15.019Z,24.58
2023-06-04T04:10:17.088Z,24.14
2023-06-04T04:11:18.940Z,24.12
2023-06-04T04:12:20.862Z,24.21
2023-06-04T04:13:22.838Z,24.83
2023-06-04T04:14:24.704Z,24.62
2023-06-04T04:15:26.994Z,24.17
2023-06-04T04:16:29.670Z,24.37
2023-06-04T04:17:32.369Z,24.47
2023-06-04T04:18:36.032Z,24.50
2023-06-04T04:19:38.451Z,24.25
2023-06-04T04:20:40.434Z,24.15
2023-06-04T04:21:46.540Z,24.03
2023-06-04T04:22:51.274Z,24.75
2023-06-04T04:23:53.782Z,24.49
2023-06-04T04:24:55.863Z,24.64
2023-06-04T04:26:00.338Z,24.62
2023-06-04T04:27:05.007Z,24.17
2023-06-04T04:28:08.204Z,24.60
2023-06-04T04:29:11.325Z,24.44
2023-06-04T04:30:14.857Z,24.05
2023-06-04T04:31:19.607Z,24.54
2023-06-04T04:32:21.563Z,24.12
2023-06-04T04:33:26.984Z,24.38
2023-06-04T04:34:29.132Z,24.35
2023-06-04T04:35:33.828Z,24.22
2023-06-04T04:36:37.621Z,24.63
2023-06-04T04:37:40.040Z,23.94
2023-06-04T04:38:43.476Z,23.87
2023-06-04T04:39:45.738Z,24.15
2023-06-04T04:40:48.889Z,23.93
2023-06-04T04:41:52.239Z,24.57
2023-06-04T04:42:54.177Z,24.12
2023-06-04T04:44:04.725Z,24.49
2023-06-04T04:45:07.517Z,24.32
2023-06-04T04:46:09.594Z,24.58
2023-06-04T04:47:11.705Z,24.17
2023-06-04T04:48:13.663Z,24.05
2023-06-04T04:49:15.808Z,24.45
2023-06-04T04:50:18.022Z,23.93
2023-06-04T04:51:19.997Z,24.37
2023-06-04T04:52:21.940Z,24.47
2023-06-04T04:53:24.314Z,24.28
2023-06-04T04:54:26.273Z,24.65
2023-06-04T04:55:28.102Z,24.51
2023-06-04T04:56:30.268Z,24.38
2023-06-04T04:57:32.176Z,24.11
2023-06-04T04:58:34.959Z,24.01
2023-06-04T04:59:37.382Z,24.42
2023-06-04T05:00:39.317Z,24.50
2023-06-04T05:01:41.473Z,24.01
2023-06-04T05:02:43.510Z,24.47
2023-06-04T05:03:46.792Z,24.62
2023-06-04T05:04:50.888Z,23.91
2023-06-04T05:05:53.085Z,24.61
2023-06-04T05:06:55.384Z,24.42
2023-06-04T05:07:58.394Z,24.68
2023-06-04T05:09:06.077Z,24.45
2023-06-04T05:10:08.332Z,24.37
2023-06-04T05:11:11.724Z,24.43
2023-06-04T05:12:14.483Z,23.98
2023-06-04T05:13:16.787Z,24.30
2023-06-04T05:14:28.347Z,24.42
2023-06-04T05:15:30.752Z,24.57
2023-06-04T05:16:36.587Z,24.02
2023-06-04T05:17:41.828Z,24.48
2023-06-04T05:18:46.287Z,24.33
2023-06-04T05:19:55.782Z,24.53
2023-06-04T05:20:59.050Z,24.30
2023-06-04T05:22:04.383Z,24.12
2023-06-04T05:23:06.434Z,23.91
2023-06-04T05:24:09.183Z,24.42
2023-06-04T05:25:14.195Z,24.51
2023-06-04T05:26:16.676Z,24.63
2023-06-04T05:27:18.653Z,24.68
2023-06-04T05:28:21.635Z,23.87
2023-06-04T05:29:24.747Z,24.14
2023-06-04T05:30:27.313Z,24.63
2023-06-04T05:31:29.379Z,24.27
2023-06-04T05:32:33.917Z,23.98
2023-06-04T05:33:36.936Z,24.50
2023-06-04T05:34:43.419Z,23.90
2023-06-04T05:35:47.454Z,24.63
2023-06-04T05:36:49.400Z,23.85
2023-06-04T05:37:54.996Z,24.53
2023-06-04T05:39:01.262Z,24.62
2023-06-04T05:40:13.608Z,24.48
2023-06-04T05:41:16.359Z,24.68
2023-06-04T05:42:19.059Z,24.25
2023-06-04T05:43:22.556Z,24.54
2023-06-04T05:44:24.474Z,24.72
2023-06-04T05:45:26.456Z,24.08
2023-06-04T05:46:29.114Z,24.48
2023-06-04T05:47:31.284Z,24.17
2023-06-04T05:48:33.673Z,24.72
2023-06-04T05:49:36.009Z,24.75
2023-06-04T05:50:38.761Z,24.15
2023-06-04T05:51:40.733Z,24.40
2023-06-04T05:52:42.935Z,24.72
2023-06-04T05:53:48.380Z,24.45
2023-06-04T05:54:51.338Z,24.59
2023-06-04T05:55:53.332Z,24.09
2023-06-04T05:56:55.267Z,23.98
2023-06-04T05:57:57.386Z,23.93
2023-06-04T05:58:59.420Z,24.41
2023-06-04T06:00:03.344Z,24.49
2023-06-04T06:01:16.223Z,24.30
2023-06-04T06:02:18.102Z,24.22
2023-06-04T06:03:20.596Z,24.76
2023-06-04T06:04:24.264Z,24.60
2023-06-04T06:05:26.910Z,24.73
2023-06-04T06:06:29.691Z,24.65
2023-06-04T06:07:32.209Z,24.83
2023-06-04T06:08:34.332Z,24.10
2023-06-04T06:09:37.309Z,24.79
2023-06-04T06:10:39.453Z,24.15
2023-06-04T06:11:41.580Z,24.48
2023-06-04T06:12:43.928Z,24.37
2023-06-04T06:13:46.153Z,24.40
2023-06-04T06:14:49.550Z,23.91
2023-06-04T06:15:54.054Z,23.82
2023-06-04T06:16:56.146Z,24.25
2023-06-04T06:17:58.183Z,24.49
2023-06-04T06:19:02.086Z,24.16
2023-06-04T06:20:09.395Z,24.12
2023-06-04T06:21:12.093Z,23.74
2023-06-04T06:22:15.152Z,24.34
2023-06-04T06:23:18.058Z,24.03
2023-06-04T06:24:20.740Z,24.17
2023-06-04T06:25:22.712Z,24.11
2023-06-04T06:26:31.223Z,24.26
2023-06-04T06:27:34.621Z,24.13
2023-06-04T06:28:37.349Z,23.60
2023-06-04T06:29:40.431Z,23.35
2023-06-04T06:30:42.445Z,23.96
2023-06-04T06:31:44.402Z,23.29
2023-06-04T06:32:46.924Z,23.63
2023-06-04T06:33:48.904Z,23.91
2023-06-04T06:34:50.747Z,23.28
2023-06-04T06:35:52.630Z,24.01
2023-06-04T06:36:54.508Z,23.85
2023-06-04T06:37:56.363Z,23.07
2023-06-04T06:38:58.325Z,23.13
2023-06-04T06:40:00.178Z,23.07
2023-06-04T06:41:02.034Z,22.88
2023-06-04T06:42:04.093Z,23.14
2023-06-04T06:43:11.396Z,22.91
2023-06-04T06:44:13.226Z,23.70
2023-06-04T06:45:15.204Z,22.71
2023-06-04T06:46:17.087Z,23.33
2023-06-04T06:47:19.170Z,23.00
2023-06-04T06:48:21.634Z,23.42
2023-06-04T06:49:23.477Z,22.61
2023-06-04T06:50:25.364Z,23.43
2023-06-04T06:51:27.285Z,23.34
2023-06-04T06:52:29.112Z,22.83
2023-06-04T06:53:31.057Z,23.19
2023-06-04T06:54:32.894Z,22.73
2023-06-04T06:55:34.781Z,22.57
2023-06-04T06:56:36.732Z,22.79
2023-06-04T06:57:38.649Z,22.48
2023-06-04T06:58:40.498Z,22.87
2023-06-04T06:59:42.320Z,22.36
2023-06-04T07:00:44.237Z,22.36
2023-06-04T07:01:46.224Z,23.08
2023-06-04T07:02:48.143Z,22.65
2023-06-04T07:03:50.124Z,22.65
2023-06-04T07:04:51.945Z,23.06
2023-06-04T07:05:53.801Z,22.22
2023-06-04T07:06:55.665Z,22.50
2023-06-04T07:07:58.641Z,22.25
2023-06-04T07:09:00.934Z,22.34
2023-06-04T07:10:02.890Z,22.12
2023-06-04T07:11:05.141Z,22.39
2023-06-04T07:12:07.738Z,22.73
2023-06-04T07:13:09.722Z,22.41
2023-06-04T07:14:11.800Z,22.31
2023-06-04T07:15:13.994Z,22.33
2023-06-04T07:16:16.004Z,22.73
2023-06-04T07:17:17.885Z,22.73
2023-06-04T07:18:19.692Z,22.28
2023-06-04T07:19:21.589Z,22.41
2023-06-04T07:20:23.509Z,21.98
2023-06-04T07:21:25.425Z,22.68
2023-06-04T07:22:27.730Z,21.99
2023-06-04T07:23:29.667Z,21.98
2023-06-04T07:24:31.552Z,22.48
2023-06-04T07:25:34.045Z,22.40
2023-06-04T07:26:35.887Z,22.54
2023-06-04T07:27:38.024Z,22.26
2023-06-04T07:28:39.901Z,22.47
2023-06-04T07:29:44.790Z,22.53
2023-06-04T07:30:47.361Z,21.95
2023-06-04T07:31:49.316Z,22.45
2023-06-04T07:32:51.637Z,21.95
2023-06-04T07:33:53.518Z,22.33
2023-06-04T07:34:55.469Z,22.25
2023-06-04T07:35:57.335Z,21.98
2023-06-04T07:36:59.176Z,22.29
2023-06-04T07:38:01.247Z,21.89
2023-06-04T07:39:05.613Z,22.29
2023-06-04T07:40:08.114Z,22.44
2023-06-04T07:41:10.566Z,22.34
2023-06-04T07:42:12.413Z,22.36
2023-06-04T07:43:14.607Z,21.97
2023-06-04T07:44:16.579Z,22.13
2023-06-04T07:45:18.456Z,22.11
2023-06-04T07:46:20.402Z,21.92
2023-06-04T07:47:23.280Z,22.24
2023-06-04T07:48:31.482Z,22.65
2023-06-04T07:49:33.428Z,22.65
2023-06-04T07:50:36.964Z,22.14
2023-06-04T07:51:40.092Z,22.20
2023-06-04T07:52:41.982Z,22.00
2023-06-04T07:53:46.100Z,22.55
2023-06-04T07:54:48.054Z,22.37
2023-06-04T07:55:49.908Z,22.30
2023-06-04T07:56:56.867Z,21.82
2023-06-04T07:57:58.712Z,22.03
2023-06-04T07:59:00.599Z,22.31
2023-06-04T08:00:05.301Z,22.59
2023-06-04T08:01:13.772Z,21.90
2023-06-04T08:02:16.131Z,21.71
2023-06-04T08:03:19.983Z,21.97
2023-06-04T08:04:23.111Z,22.04
2023-06-04T08:05:25.050Z,22.26
2023-06-04T08:06:27.752Z,22.28
2023-06-04T08:07:30.929Z,22.40
2023-06-04T08:08:34.996Z,22.46
2023-06-04T08:09:37.214Z,21.73
2023-06-04T08:10:41.693Z,22.18
2023-06-04T08:11:46.729Z,21.91
2023-06-04T08:12:48.592Z,22.08
2023-06-04T08:13:50.534Z,22.37
2023-06-04T08:14:52.429Z,22.32
2023-06-04T08:15:54.365Z,22.01
2023-06-04T08:16:56.270Z,22.28
2023-06-04T08:17:58.333Z,21.80
2023-06-04T08:19:00.237Z,22.38
2023-06-04T08:20:02.095Z,22.31
2023-06-04T08:21:04.063Z,22.10
2023-06-04T08:22:07.012Z,21.97
2023-06-04T08:23:08.873Z,21.88
2023-06-04T08:24:10.695Z,21.63
2023-06-04T08:25:12.529Z,21.72
2023-06-04T08:26:14.713Z,21.73
2023-06-04T08:27:16.597Z,22.16
2023-06-04T08:28:20.299Z,21.58
2023-06-04T08:29:22.280Z,22.07
2023-06-04T08:30:24.681Z,21.83
2023-06-04T08:31:26.848Z,22.13
2023-06-04T08:32:29.048Z,21.65
2023-06-04T08:33:30.901Z,22.44
2023-06-04T08:34:32.741Z,21.60
2023-06-04T08:35:34.662Z,22.12
2023-06-04T08:36:36.516Z,22.00
2023-06-04T08:37:38.344Z,21.91
2023-06-04T08:38:40.243Z,21.48
2023-06-04T08:39:42.357Z,22.10
2023-06-04T08:40:44.762Z,21.56
2023-06-04T08:41:55.913Z,21.71
2023-06-04T08:43:00.838Z,22.26
2023-06-04T08:44:06.872Z,22.24
2023-06-04T08:45:13.041Z,21.81
2023-06-04T08:46:17.773Z,22.07
2023-06-04T08:47:21.313Z,22.27
2023-06-04T08:48:25.999Z,22.19
2023-06-04T08:49:29.986Z,21.74
2023-06-04T08:50:32.932Z,22.15
2023-06-04T08:51:38.438Z,22.24
2023-06-04T08:52:41.987Z,21.70
2023-06-04T08:53:45.083Z,21.68
2023-06-04T08:54:50.006Z,21.89
2023-06-04T08:55:54.389Z,21.88
2023-06-04T08:56:58.536Z,22.26
2023-06-04T08:58:01.404Z,21.96
2023-06-04T08:59:05.512Z,21.54
2023-06-04T09:00:09.547Z,21.86
2023-06-04T09:01:12.919Z,21.94
2023-06-04T09:02:16.129Z,22.24
2023-06-04T09:03:20.247Z,21.87
2023-06-04T09:04:22.677Z,21.81
2023-06-04T09:05:24.899Z,22.11
2023-06-04T09:06:27.179Z,22.31
2023-06-04T09:07:29.740Z,22.42
2023-06-04T09:08:37.683Z,21.53
2023-06-04T09:09:41.128Z,22.02
2023-06-04T09:10:44.748Z,22.36
2023-06-04T09:11:53.658Z,22.31
2023-06-04T09:12:58.054Z,21.57
2023-06-04T09:14:02.450Z,21.86
2023-06-04T09:15:04.791Z,22.18
2023-06-04T09:16:07.436Z,21.71
2023-06-04T09:17:09.424Z,22.40
2023-06-04T09:18:13.590Z,22.04
2023-06-04T09:19:16.499Z,22.42
2023-06-04T09:20:23.278Z,22.38
2023-06-04T09:21:25.677Z,22.30
2023-06-04T09:22:38.384Z,22.25
2023-06-04T09:23:48.351Z,21.75
2023-06-04T09:24:51.295Z,22.21
2023-06-04T09:25:54.896Z,22.20
2023-06-04T09:26:56.715Z,21.89
2023-06-04T09:28:08.009Z,22.00
2023-06-04T09:29:10.282Z,22.04
2023-06-04T09:30:12.292Z,21.79
2023-06-04T09:31:18.038Z,21.92
2023-06-04T09:32:28.050Z,22.48
2023-06-04T09:33:30.462Z,21.42
2023-06-04T09:34:32.725Z,21.94
2023-06-04T09:35:36.482Z,22.13
2023-06-04T09:36:39.037Z,22.25
2023-06-04T09:37:52.930Z,22.17
2023-06-04T09:38:54.814Z,21.70
2023-06-04T09:39:57.204Z,21.80
2023-06-04T09:40:59.197Z,21.59
2023-06-04T09:42:02.738Z,21.74
2023-06-04T09:43:04.782Z,21.55
2023-06-04T09:44:07.370Z,21.88
2023-06-04T09:45:10.095Z,21.96
2023-06-04T09:46:13.800Z,21.54
2023-06-04T09:47:16.631Z,22.09
2023-06-04T09:48:24.909Z,22.23
2023-06-04T09:49:27.043Z,22.03
2023-06-04T09:50:35.252Z,22.12
2023-06-04T09:51:49.558Z,22.10
2023-06-04T09:52:52.350Z,21.90
2023-06-04T09:53:59.202Z,21.91
2023-06-04T09:55:01.443Z,21.65
2023-06-04T09:56:07.743Z,21.47
2023-06-04T09:57:17.633Z,21.55
2023-06-04T09:58:19.808Z,21.52
2023-06-04T09:59:22.617Z,21.72
2023-06-04T10:00:25.260Z,21.76
2023-06-04T10:01:28.361Z,21.94
2023-06-04T10:02:31.602Z,22.11
2023-06-04T10:03:38.413Z,21.61
2023-06-04T10:04:44.040Z,21.58
2023-06-04T10:05:46.515Z,22.12
2023-06-04T10:06:49.747Z,22.04
2023-06-04T10:07:53.316Z,21.94
2023-06-04T10:08:58.600Z,22.24
2023-06-04T10:10:00.828Z,21.84
2023-06-04T10:11:04.187Z,21.43
2023-06-04T10:12:06.613Z,21.46
2023-06-04T10:13:13.510Z,21.87
2023-06-04T10:14:24.597Z,21.61
2023-06-04T10:15:27.060Z,21.41
2023-06-04T10:16:34.921Z,21.44
2023-06-04T10:17:38.868Z,22.02
2023-06-04T10:18:41.501Z,21.30
2023-06-04T10:19:46.161Z,21.68
2023-06-04T10:20:48.723Z,21.81
2023-06-04T10:21:50.707Z,22.07
2023-06-04T10:22:52.623Z,21.45
2023-06-04T10:23:54.555Z,22.17
2023-06-04T10:24:56.447Z,21.76
2023-06-04T10:25:59.069Z,21.88
2023-06-04T10:27:01.769Z,21.49
2023-06-04T10:28:04.823Z,21.37
2023-06-04T10:29:07.612Z,21.46
2023-06-04T10:30:11.086Z,21.70
2023-06-04T10:31:13.794Z,22.25
2023-06-04T10:32:16.595Z,21.67
2023-06-04T10:33:25.292Z,21.36
2023-06-04T10:34:28.421Z,22.12
2023-06-04T10:35:37.274Z,22.09
2023-06-04T10:36:46.888Z,21.37
2023-06-04T10:37:49.266Z,21.39
2023-06-04T10:38:56.117Z,21.58
2023-06-04T10:39:59.480Z,21.46
2023-06-04T10:41:12.969Z,21.38
2023-06-04T10:42:17.597Z,22.21
2023-06-04T10:43:19.902Z,21.69
2023-06-04T10:44:22.083Z,21.57
2023-06-04T10:45:31.110Z,21.55
2023-06-04T10:46:42.970Z,22.36
2023-06-04T10:47:45.164Z,21.74
2023-06-04T10:48:54.559Z,22.00
2023-06-04T10:50:07.398Z,21.90
2023-06-04T10:51:09.540Z,22.08
2023-06-04T10:52:12.421Z,21.75
2023-06-04T10:53:14.320Z,21.88
2023-06-04T10:54:25.463Z,21.83
2023-06-04T10:55:27.404Z,21.58
2023-06-04T10:56:33.709Z,22.12
2023-06-04T10:57:35.728Z,21.52
2023-06-04T10:58:37.660Z,21.24
2023-06-04T10:59:39.719Z,22.03
2023-06-04T11:00:43.632Z,21.80
2023-06-04T11:01:46.468Z,22.11
2023-06-04T11:02:56.241Z,22.07
2023-06-04T11:03:58.843Z,21.52
2023-06-04T11:05:06.773Z,21.29
2023-06-04T11:06:18.859Z,21.76
2023-06-04T11:07:20.982Z,21.40
2023-06-04T11:08:31.412Z,21.92
2023-06-04T11:09:35.319Z,21.84
2023-06-04T11:10:39.702Z,21.86
2023-06-04T11:11:41.619Z,21.75
2023-06-04T11:12:54.493Z,21.53
2023-06-04T11:13:56.802Z,21.65
2023-06-04T11:14:59.576Z,21.62
2023-06-04T11:16:01.580Z,21.47
2023-06-04T11:17:14.141Z,21.65
2023-06-04T11:18:21.319Z,21.49
2023-06-04T11:19:23.437Z,21.46
2023-06-04T11:20:25.670Z,21.72
2023-06-04T11:21:28.080Z,22.06
2023-06-04T11:22:30.150Z,21.60
2023-06-04T11:23:32.185Z,21.74
2023-06-04T11:24:34.279Z,21.63
2023-06-04T11:25:36.470Z,21.72
2023-06-04T11:26:40.541Z,21.50
2023-06-04T11:27:44.777Z,22.09
2023-06-04T11:28:50.260Z,21.78
2023-06-04T11:29:54.936Z,21.55
2023-06-04T11:31:04.209Z,21.58
2023-06-04T11:32:06.862Z,21.25
2023-06-04T11:33:08.684Z,21.72
2023-06-04T11:34:10.817Z,22.00
2023-06-04T11:35:12.927Z,22.06
2023-06-04T11:36:28.128Z,21.36
2023-06-04T11:37:33.594Z,21.80
2023-06-04T11:38:35.481Z,21.85
2023-06-04T11:39:40.590Z,21.78
2023-06-04T11:40:44.810Z,21.30
2023-06-04T11:41:47.089Z,21.57
2023-06-04T11:42:49.763Z,21.76
2023-06-04T11:43:51.615Z,22.00
2023-06-04T11:44:57.580Z,21.81
2023-06-04T11:45:59.653Z,22.02
2023-06-04T11:47:01.539Z,21.42
2023-06-04T11:48:06.549Z,22.07
2023-06-04T11:49:08.626Z,22.24
2023-06-04T11:50:11.262Z,22.21
2023-06-04T11:51:13.814Z,21.82
2023-06-04T11:52:15.769Z,22.06
2023-06-04T11:53:17.842Z,22.08
2023-06-04T11:54:21.780Z,21.68
2023-06-04T11:55:24.259Z,22.05
2023-06-04T11:56:29.546Z,21.86
2023-06-04T11:57:31.749Z,21.56
2023-06-04T11:58:34.189Z,21.61
2023-06-04T11:59:36.462Z,21.83
2023-06-04T12:00:38.578Z,21.94
2023-06-04T12:01:43.116Z,22.08
2023-06-04T12:02:56.036Z,21.75
2023-06-04T12:03:58.177Z,21.80
2023-06-04T12:05:00.031Z,22.10
2023-06-04T12:06:17.259Z,21.73
2023-06-04T12:07:25.446Z,21.74
2023-06-04T12:08:27.480Z,21.69
2023-06-04T12:09:39.503Z,21.62
2023-06-04T12:10:43.607Z,22.01
2023-06-04T12:11:46.141Z,21.83
2023-06-04T12:12:55.564Z,21.95
2023-06-04T12:13:59.240Z,21.90
2023-06-04T12:15:01.317Z,21.93
2023-06-04T12:16:03.347Z,21.95
2023-06-04T12:17:09.995Z,22.13
2023-06-04T12:18:12.173Z,21.76
2023-06-04T12:19:14.081Z,21.73
2023-06-04T12:20:16.076Z,22.09
2023-06-04T12:21:28.106Z,21.46
2023-06-04T12:22:32.565Z,21.70
2023-06-04T12:23:34.651Z,21.48
2023-06-04T12:24:50.258Z,21.88
2023-06-04T12:25:52.481Z,21.68
2023-06-04T12:27:06.831Z,21.95
2023-06-04T12:28:19.215Z,21.72
2023-06-04T12:29:21.250Z,21.43
2023-06-04T12:30:23.503Z,21.99
2023-06-04T12:31:25.406Z,22.33
2023-06-04T12:32:27.893Z,21.65
2023-06-04T12:33:29.706Z,21.64
2023-06-04T12:34:32.972Z,21.79
2023-06-04T12:35:35.562Z,22.03
2023-06-04T12:36:37.687Z,21.95
2023-06-04T12:37:40.768Z,22.03
2023-06-04T12:38:42.577Z,21.66
2023-06-04T12:39:44.579Z,21.72
2023-06-04T12:40:46.491Z,22.05
2023-06-04T12:41:48.442Z,22.04
2023-06-04T12:42:53.307Z,22.21
2023-06-04T12:43:56.135Z,21.76
2023-06-04T12:44:57.940Z,22.03
2023-06-04T12:45:59.837Z,21.91
2023-06-04T12:47:01.749Z,21.60
2023-06-04T12:48:03.719Z,21.88
2023-06-04T12:49:06.671Z,21.98
2023-06-04T12:50:08.861Z,21.80
2023-06-04T12:51:11.702Z,22.06
2023-06-04T12:52:15.489Z,22.13
2023-06-04T12:53:17.326Z,21.72
2023-06-04T12:54:19.443Z,22.17
2023-06-04T12:55:21.689Z,21.64
2023-06-04T12:56:23.809Z,21.41
2023-06-04T12:57:25.725Z,22.34
2023-06-04T12:58:27.549Z,21.66
2023-06-04T12:59:29.571Z,21.83
2023-06-04T13:00:31.516Z,22.06
2023-06-04T13:01:33.478Z,22.19
2023-06-04T13:02:35.463Z,21.58
2023-06-04T13:03:38.964Z,22.34
2023-06-04T13:04:42.693Z,22.14
2023-06-04T13:05:44.546Z,21.45
2023-06-04T13:06:49.153Z,21.51
2023-06-04T13:07:51.242Z,21.95
2023-06-04T13:08:53.113Z,21.97
2023-06-04T13:09:54.956Z,21.95
2023-06-04T13:10:57.147Z,22.21
2023-06-04T13:11:58.987Z,21.95
2023-06-04T13:13:00.825Z,22.23
2023-06-04T13:14:02.764Z,21.53
2023-06-04T13:15:05.230Z,21.59
2023-06-04T13:16:07.146Z,21.55
2023-06-04T13:17:21.200Z,21.58
2023-06-04T13:18:24.333Z,22.05
2023-06-04T13:19:27.797Z,21.34
2023-06-04T13:20:30.104Z,21.89
2023-06-04T13:21:31.911Z,21.55
2023-06-04T13:22:33.978Z,21.93
2023-06-04T13:23:49.771Z,22.30
2023-06-04T13:24:53.026Z,22.20
2023-06-04T13:25:55.080Z,21.98
2023-06-04T13:26:57.112Z,21.45
2023-06-04T13:27:59.112Z,21.78
2023-06-04T13:29:00.997Z,22.04
2023-06-04T13:30:03.171Z,22.25
2023-06-04T13:31:05.258Z,22.10
2023-06-04T13:32:07.372Z,22.37
2023-06-04T13:33:09.281Z,21.96
2023-06-04T13:34:26.487Z,21.55
2023-06-04T13:35:29.879Z,21.75
2023-06-04T13:36:31.710Z,21.66
2023-06-04T13:37:33.543Z,21.73